createdAt,value
2022-10-25T00:03:05.467Z,13.80
2022-10-25T00:08:45.325Z,18.40
2022-10-25T00:14:33.826Z,24.10
2022-10-25T00:20:16.584Z,19.20
2022-10-25T00:25:57.413Z,21.30
2022-10-25T00:31:41.382Z,18.60
2022-10-25T00:37:31.502Z,18.90
2022-10-25T00:43:11.460Z,18.40
2022-10-25T00:48:51.344Z,15.20
2022-10-25T00:57:41.642Z,18.00
2022-10-25T01:03:21.484Z,15.90
2022-10-25T01:09:03.494Z,15.40
2022-10-25T01:14:45.565Z,14.40
2022-10-25T01:20:46.509Z,16.20
2022-10-25T01:27:03.549Z,20.60
2022-10-25T01:32:52.524Z,17.10
2022-10-25T01:38:49.937Z,14.10
2022-10-25T01:44:40.555Z,15.80
2022-10-25T01:50:27.472Z,16.80
2022-10-25T01:56:11.632Z,22.70
2022-10-25T02:02:04.587Z,18.30
2022-10-25T02:07:51.569Z,19.90
2022-10-25T02:13:43.639Z,17.10
2022-10-25T02:19:27.502Z,21.10
2022-10-25T02:25:09.508Z,19.60
2022-10-25T02:30:51.472Z,24.40
2022-10-25T02:36:36.787Z,22.60
2022-10-25T02:42:16.635Z,24.20
2022-10-25T02:47:56.494Z,23.80
2022-10-25T02:53:36.570Z,22.60
2022-10-25T02:59:17.566Z,25.00
2022-10-25T03:05:00.624Z,22.50
2022-10-25T03:10:40.518Z,24.50
2022-10-25T03:16:21.579Z,31.40
2022-10-25T03:22:01.541Z,28.30
2022-10-25T03:27:41.705Z,32.70
2022-10-25T03:33:21.712Z,34.90
2022-10-25T03:39:01.514Z,27.10
2022-10-25T03:44:41.653Z,33.00
2022-10-25T03:50:23.566Z,25.30
2022-10-25T03:56:04.169Z,24.60
2022-10-25T04:01:50.682Z,21.00
2022-10-25T04:07:30.547Z,21.90
2022-10-25T04:13:10.592Z,21.50
2022-10-25T04:18:50.601Z,22.00
2022-10-25T04:24:30.588Z,25.30
2022-10-25T04:30:10.558Z,20.50
2022-10-25T04:35:50.550Z,22.30
2022-10-25T04:41:30.513Z,21.20
2022-10-25T04:47:10.727Z,23.40
2022-10-25T04:52:50.681Z,24.70
2022-10-25T04:58:31.757Z,20.60
2022-10-25T05:04:11.589Z,18.40
2022-10-25T05:09:51.529Z,21.00
2022-10-25T05:15:31.513Z,22.10
2022-10-25T05:21:13.568Z,20.70
2022-10-25T05:26:53.500Z,19.30
2022-10-25T05:32:33.627Z,19.10
2022-10-25T05:38:14.588Z,19.90
2022-10-25T05:43:55.604Z,22.30
2022-10-25T05:49:35.786Z,19.90
2022-10-25T05:55:15.585Z,22.40
2022-10-25T06:00:55.625Z,23.90
2022-10-25T06:06:40.610Z,18.40
2022-10-25T06:12:20.630Z,18.30
2022-10-25T06:18:00.617Z,21.20
2022-10-25T06:23:42.643Z,19.30
2022-10-25T06:29:22.554Z,20.10
2022-10-25T06:35:02.642Z,14.40
2022-10-25T06:40:42.634Z,16.60
2022-10-25T06:46:23.645Z,20.20
2022-10-25T06:57:41.603Z,16.50
2022-10-25T07:03:36.630Z,18.90
2022-10-25T07:09:19.619Z,19.40
2022-10-25T07:14:59.636Z,20.80
2022-10-25T07:20:39.619Z,14.30
2022-10-25T07:26:19.635Z,10.70
2022-10-25T07:31:59.602Z,10.80
2022-10-25T07:37:39.635Z,10.70
2022-10-25T07:48:58.612Z,11.00
2022-10-25T07:54:38.684Z,11.80
2022-10-25T08:00:19.623Z,8.70
2022-10-25T08:06:01.670Z,11.40
2022-10-25T08:11:41.667Z,10.10
2022-10-25T08:17:22.650Z,10.10
2022-10-25T08:23:02.631Z,10.70
2022-10-25T08:28:42.615Z,16.50
2022-10-25T08:34:22.694Z,9.30
2022-10-25T08:40:02.674Z,12.30
2022-10-25T08:45:50.645Z,11.80
2022-10-25T08:51:40.658Z,12.70
2022-10-25T08:57:43.833Z,8.20
2022-10-25T09:03:31.745Z,10.70
2022-10-25T09:09:22.679Z,10.50
2022-10-25T09:15:09.655Z,12.20
2022-10-25T09:20:57.684Z,10.80
2022-10-25T09:26:47.730Z,17.30
2022-10-25T09:32:32.681Z,13.00
2022-10-25T09:38:18.651Z,12.80
2022-10-25T09:44:04.723Z,11.90
2022-10-25T09:49:50.702Z,12.80
2022-10-25T09:55:42.697Z,11.00
2022-10-25T10:01:26.759Z,12.00
2022-10-25T10:07:18.696Z,16.50
2022-10-25T10:13:03.780Z,9.30
2022-10-25T10:18:46.765Z,14.60
2022-10-25T10:24:33.731Z,14.30
2022-10-25T10:30:15.718Z,10.20
2022-10-25T10:35:55.727Z,13.00
2022-10-25T10:41:41.697Z,12.00
2022-10-25T10:47:33.701Z,11.60
2022-10-25T10:53:15.772Z,13.90
2022-10-25T10:59:02.054Z,13.70
2022-10-25T11:04:41.760Z,16.10
2022-10-25T11:10:45.731Z,12.10
2022-10-25T11:17:03.755Z,12.70
2022-10-25T11:23:08.760Z,13.30
2022-10-25T11:29:00.779Z,14.30
2022-10-25T11:34:51.791Z,11.40
2022-10-25T11:40:34.829Z,11.90
2022-10-25T11:46:18.827Z,11.60
2022-10-25T11:52:04.811Z,8.70
2022-10-25T11:57:57.859Z,8.80
2022-10-25T12:03:49.872Z,11.00
2022-10-25T12:09:41.891Z,11.90
2022-10-25T12:15:31.800Z,14.40
2022-10-25T12:21:12.802Z,9.20
2022-10-25T12:32:39.798Z,9.80
2022-10-25T12:38:26.933Z,8.40
2022-10-25T12:44:23.824Z,13.20
2022-10-25T12:50:43.806Z,10.70
2022-10-25T12:56:39.803Z,10.10
2022-10-25T13:02:34.880Z,11.00
2022-10-25T13:08:23.815Z,14.60
2022-10-25T13:14:05.803Z,14.80
2022-10-25T13:20:01.044Z,15.40
2022-10-25T13:26:16.811Z,13.70
2022-10-25T13:32:18.894Z,8.90
2022-10-25T13:38:00.836Z,11.60
2022-10-25T13:43:40.943Z,11.80
2022-10-25T13:49:48.791Z,8.90
2022-10-25T13:55:35.828Z,12.60
2022-10-25T14:02:07.911Z,9.50
2022-10-25T14:08:08.827Z,11.30
2022-10-25T14:14:01.884Z,10.70
2022-10-25T14:19:49.842Z,11.80
2022-10-25T14:25:36.845Z,9.60
2022-10-25T14:31:17.893Z,12.70
2022-10-25T14:42:41.005Z,11.60
2022-10-25T14:48:24.873Z,8.60
2022-10-25T14:54:09.833Z,10.90
2022-10-25T14:59:54.948Z,11.30
2022-10-25T15:05:37.987Z,12.40
2022-10-25T15:11:21.846Z,9.70
2022-10-25T15:17:01.878Z,7.50
2022-10-25T15:22:45.043Z,6.50
2022-10-25T15:28:27.951Z,9.40
2022-10-25T15:34:16.888Z,7.90
2022-10-25T15:39:58.944Z,11.10
2022-10-25T15:45:38.880Z,10.70
2022-10-25T15:51:19.894Z,10.20
2022-10-25T15:57:00.902Z,9.60
2022-10-25T16:02:41.044Z,12.20
2022-10-25T16:08:21.978Z,12.40
2022-10-25T16:14:09.919Z,10.60
2022-10-25T16:19:49.958Z,7.60
2022-10-25T16:25:33.140Z,11.80
2022-10-25T16:31:12.944Z,10.30
2022-10-25T16:36:53.105Z,11.20
2022-10-25T16:42:45.110Z,11.20
2022-10-25T16:48:24.959Z,12.20
2022-10-25T16:54:05.898Z,10.80
2022-10-25T16:59:45.948Z,7.00
2022-10-25T17:05:32.132Z,10.50
2022-10-25T17:11:11.958Z,9.00
2022-10-25T17:16:53.943Z,7.50
2022-10-25T17:22:28.969Z,8.00
2022-10-25T17:28:08.941Z,9.10
2022-10-25T17:33:50.352Z,8.30
2022-10-25T17:39:29.933Z,8.90
2022-10-25T17:45:09.994Z,7.70
2022-10-25T17:50:51.070Z,9.00
2022-10-25T18:02:12.102Z,6.70
2022-10-25T18:07:52.234Z,6.60
2022-10-25T18:13:33.951Z,8.20
2022-10-25T18:19:16.039Z,11.40
2022-10-25T18:24:56.038Z,13.40
2022-10-25T18:30:36.000Z,9.00
2022-10-25T18:36:18.037Z,10.30
2022-10-25T18:41:57.975Z,9.90
2022-10-25T18:47:38.045Z,10.90
2022-10-25T18:53:18.026Z,10.40
2022-10-25T18:58:58.079Z,10.00
2022-10-25T19:04:38.071Z,9.50
2022-10-25T19:10:19.052Z,10.70
2022-10-25T19:16:06.063Z,9.20
2022-10-25T19:21:46.070Z,12.90
2022-10-25T19:27:26.031Z,10.00
2022-10-25T19:33:08.286Z,13.80
2022-10-25T19:38:48.015Z,10.10
2022-10-25T19:44:28.070Z,10.40
2022-10-25T19:50:08.045Z,10.00
2022-10-25T19:55:48.058Z,16.00
2022-10-25T20:01:30.126Z,13.20
2022-10-25T20:07:10.026Z,12.80
2022-10-25T20:12:50.049Z,14.70
2022-10-25T20:18:30.092Z,10.30
2022-10-25T20:24:12.101Z,16.80
2022-10-25T20:29:52.061Z,11.60
2022-10-25T20:35:33.084Z,14.00
2022-10-25T20:41:18.094Z,16.10
2022-10-25T20:46:58.066Z,13.60
2022-10-25T20:52:47.665Z,15.10
2022-10-25T20:58:28.082Z,12.70
2022-10-25T21:04:08.111Z,14.40
2022-10-25T21:09:49.508Z,16.30
2022-10-25T21:15:29.088Z,13.50
2022-10-25T21:21:13.129Z,13.80
2022-10-25T21:26:54.148Z,13.30
2022-10-25T21:32:34.169Z,12.10
2022-10-25T21:38:14.098Z,13.10
2022-10-25T21:43:57.176Z,12.50
2022-10-25T21:49:37.097Z,16.00
2022-10-25T21:55:18.098Z,14.60
2022-10-25T22:00:58.123Z,14.70
2022-10-25T22:06:40.140Z,11.00
2022-10-25T22:12:20.200Z,14.90
2022-10-25T22:18:07.203Z,15.60
2022-10-25T22:23:48.137Z,12.40
2022-10-25T22:29:29.222Z,11.80
2022-10-25T22:35:09.189Z,16.00
2022-10-25T22:40:49.167Z,19.20
2022-10-25T22:46:32.161Z,17.60
2022-10-25T22:52:12.202Z,15.50
2022-10-25T22:57:52.166Z,18.90
2022-10-25T23:03:32.173Z,17.30
2022-10-25T23:09:16.210Z,19.10
2022-10-25T23:14:56.181Z,16.20
2022-10-25T23:20:36.163Z,19.80
2022-10-25T23:26:16.244Z,15.90
2022-10-25T23:31:56.225Z,20.80
2022-10-25T23:37:36.172Z,15.40
2022-10-25T23:43:16.227Z,13.80
2022-10-25T23:48:56.268Z,17.90
2022-10-25T23:54:36.236Z,18.50
